createdAt,value
2023-02-12T00:01:38.844Z,100.00
2023-02-12T00:04:05.687Z,100.00
2023-02-12T00:06:32.598Z,100.00
2023-02-12T00:08:59.572Z,100.00
2023-02-12T00:11:28.805Z,100.00
2023-02-12T00:13:56.414Z,100.00
2023-02-12T00:16:25.925Z,100.00
2023-02-12T00:18:56.733Z,100.00
2023-02-12T00:21:24.322Z,100.00
2023-02-12T00:23:51.203Z,100.00
2023-02-12T00:26:20.830Z,100.00
2023-02-12T00:28:47.644Z,100.00
2023-02-12T00:31:17.620Z,100.00
2023-02-12T00:33:44.668Z,100.00
2023-02-12T00:36:15.909Z,100.00
2023-02-12T00:38:42.995Z,100.00
2023-02-12T00:41:09.980Z,100.00
2023-02-12T00:43:36.798Z,100.00
2023-02-12T00:46:05.303Z,100.00
2023-02-12T00:48:32.202Z,100.00
2023-02-12T00:50:59.065Z,100.00
2023-02-12T00:53:26.022Z,100.00
2023-02-12T00:55:53.207Z,100.00
2023-02-12T00:58:20.363Z,100.00
2023-02-12T01:00:47.208Z,100.00
2023-02-12T01:03:14.468Z,100.00
2023-02-12T01:05:41.416Z,100.00
2023-02-12T01:08:08.233Z,100.00
2023-02-12T01:10:35.253Z,100.00
2023-02-12T01:13:02.113Z,100.00
2023-02-12T01:15:29.018Z,100.00
2023-02-12T01:17:55.900Z,100.00
2023-02-12T01:20:24.902Z,100.00
2023-02-12T01:22:52.158Z,100.00
2023-02-12T01:25:20.651Z,100.00
2023-02-12T01:27:47.990Z,100.00
2023-02-12T01:30:18.038Z,100.00
2023-02-12T01:32:45.048Z,100.00
2023-02-12T01:35:12.133Z,100.00
2023-02-12T01:37:39.479Z,100.00
2023-02-12T01:40:07.525Z,100.00
2023-02-12T01:42:34.477Z,100.00
2023-02-12T01:45:13.633Z,100.00
2023-02-12T01:47:44.814Z,100.00
2023-02-12T01:50:14.337Z,100.00
2023-02-12T01:52:45.098Z,100.00
2023-02-12T01:55:12.204Z,100.00
2023-02-12T01:57:45.284Z,100.00
2023-02-12T02:00:16.501Z,100.00
2023-02-12T02:02:45.799Z,100.00
2023-02-12T02:05:16.093Z,100.00
2023-02-12T02:07:44.457Z,100.00
2023-02-12T02:10:11.455Z,100.00
2023-02-12T02:12:57.828Z,100.00
2023-02-12T02:15:27.073Z,100.00
2023-02-12T02:17:58.620Z,100.00
2023-02-12T02:21:08.467Z,100.00
2023-02-12T02:23:56.716Z,100.00
2023-02-12T02:26:41.757Z,100.00
2023-02-12T02:29:26.535Z,100.00
2023-02-12T02:32:24.128Z,100.00
2023-02-12T02:34:57.827Z,100.00
2023-02-12T02:37:29.244Z,100.00
2023-02-12T02:40:01.192Z,100.00
2023-02-12T02:42:41.657Z,100.00
2023-02-12T02:45:21.416Z,100.00
2023-02-12T02:47:53.495Z,100.00
2023-02-12T02:50:24.039Z,100.00
2023-02-12T02:52:55.339Z,100.00
2023-02-12T02:55:25.538Z,100.00
2023-02-12T02:57:56.598Z,100.00
2023-02-12T03:00:32.253Z,100.00
2023-02-12T03:03:03.304Z,100.00
2023-02-12T03:05:33.545Z,100.00
2023-02-12T03:08:14.309Z,100.00
2023-02-12T03:11:10.855Z,100.00
2023-02-12T03:13:42.800Z,100.00
2023-02-12T03:16:13.384Z,100.00
2023-02-12T03:18:50.629Z,100.00
2023-02-12T03:21:20.001Z,100.00
2023-02-12T03:23:53.430Z,100.00
2023-02-12T03:26:23.555Z,100.00
2023-02-12T03:28:50.479Z,100.00
2023-02-12T03:31:43.578Z,100.00
2023-02-12T03:34:28.686Z,100.00
2023-02-12T03:37:00.116Z,100.00
2023-02-12T03:39:33.341Z,100.00
2023-02-12T03:42:10.702Z,100.00
2023-02-12T03:44:37.458Z,100.00
2023-02-12T03:47:27.202Z,100.00
2023-02-12T03:50:11.801Z,100.00
2023-02-12T03:52:38.698Z,100.00
2023-02-12T03:55:06.087Z,100.00
2023-02-12T03:57:37.786Z,100.00
2023-02-12T04:00:08.940Z,100.00
2023-02-12T04:02:35.772Z,100.00
2023-02-12T04:05:07.467Z,100.00
2023-02-12T04:07:35.685Z,100.00
2023-02-12T04:10:02.999Z,100.00
2023-02-12T04:12:35.311Z,100.00
2023-02-12T04:15:24.396Z,100.00
2023-02-12T04:18:15.636Z,99.78
2023-02-12T04:20:51.621Z,99.83
2023-02-12T04:23:44.792Z,99.84
2023-02-12T04:26:23.315Z,100.00
2023-02-12T04:28:53.461Z,100.00
2023-02-12T04:31:41.998Z,100.00
2023-02-12T04:34:14.941Z,100.00
2023-02-12T04:36:59.913Z,100.00
2023-02-12T04:39:29.977Z,100.00
2023-02-12T04:42:00.877Z,100.00
2023-02-12T04:44:34.961Z,100.00
2023-02-12T04:47:01.842Z,100.00
2023-02-12T04:49:28.889Z,100.00
2023-02-12T04:51:55.783Z,100.00
2023-02-12T04:54:23.973Z,100.00
2023-02-12T04:56:51.255Z,100.00
2023-02-12T04:59:18.466Z,100.00
2023-02-12T05:01:45.878Z,100.00
2023-02-12T05:04:14.974Z,100.00
2023-02-12T05:06:43.122Z,100.00
2023-02-12T05:09:13.892Z,100.00
2023-02-12T05:11:40.726Z,100.00
2023-02-12T05:14:07.887Z,99.29
2023-02-12T05:16:34.910Z,99.69
2023-02-12T05:19:01.767Z,98.19
2023-02-12T05:21:28.686Z,98.46
2023-02-12T05:23:55.542Z,97.65
2023-02-12T05:26:23.280Z,97.75
2023-02-12T05:28:50.196Z,99.36
2023-02-12T05:31:21.312Z,98.34
2023-02-12T05:33:49.697Z,99.38
2023-02-12T05:36:22.123Z,99.30
2023-02-12T05:38:49.851Z,99.49
2023-02-12T05:41:19.934Z,100.00
2023-02-12T05:43:49.662Z,100.00
2023-02-12T05:46:17.994Z,100.00
2023-02-12T05:48:45.014Z,100.00
2023-02-12T05:51:16.188Z,100.00
2023-02-12T05:53:43.536Z,100.00
2023-02-12T05:56:15.870Z,100.00
2023-02-12T05:58:45.291Z,100.00
2023-02-12T06:01:24.340Z,100.00
2023-02-12T06:03:51.179Z,100.00
2023-02-12T06:06:18.205Z,100.00
2023-02-12T06:08:48.570Z,100.00
2023-02-12T06:11:16.714Z,100.00
2023-02-12T06:13:43.915Z,100.00
2023-02-12T06:16:37.123Z,100.00
2023-02-12T06:19:05.664Z,100.00
2023-02-12T06:21:33.673Z,100.00
2023-02-12T06:24:00.901Z,100.00
2023-02-12T06:26:28.017Z,100.00
2023-02-12T06:28:55.032Z,100.00
2023-02-12T06:31:27.613Z,100.00
2023-02-12T06:33:56.089Z,100.00
2023-02-12T06:36:23.369Z,100.00
2023-02-12T06:38:50.935Z,100.00
2023-02-12T06:41:17.943Z,100.00
2023-02-12T06:43:44.891Z,100.00
2023-02-12T06:46:12.372Z,100.00
2023-02-12T06:48:39.316Z,100.00
2023-02-12T06:51:14.402Z,100.00
2023-02-12T06:53:41.304Z,100.00
2023-02-12T06:56:13.409Z,99.93
2023-02-12T06:58:42.262Z,100.00
2023-02-12T07:01:18.049Z,99.87
2023-02-12T07:03:50.053Z,100.00
2023-02-12T07:06:17.413Z,100.00
2023-02-12T07:08:44.326Z,99.87
2023-02-12T07:11:11.498Z,100.00
2023-02-12T07:13:38.610Z,100.00
2023-02-12T07:16:07.264Z,99.67
2023-02-12T07:18:36.883Z,100.00
2023-02-12T07:21:05.267Z,100.00
2023-02-12T07:23:32.343Z,100.00
2023-02-12T07:26:01.179Z,100.00
2023-02-12T07:28:28.233Z,100.00
2023-02-12T07:30:55.303Z,100.00
2023-02-12T07:33:22.238Z,100.00
2023-02-12T07:35:49.988Z,100.00
2023-02-12T07:38:17.567Z,100.00
2023-02-12T07:40:45.768Z,100.00
2023-02-12T07:43:12.539Z,100.00
2023-02-12T07:45:39.377Z,100.00
2023-02-12T07:48:06.295Z,100.00
2023-02-12T07:50:33.116Z,100.00
2023-02-12T07:52:59.964Z,100.00
2023-02-12T07:55:26.841Z,100.00
2023-02-12T07:57:53.822Z,100.00
2023-02-12T08:00:21.044Z,100.00
2023-02-12T08:02:54.311Z,100.00
2023-02-12T08:05:21.255Z,100.00
2023-02-12T08:07:48.176Z,100.00
2023-02-12T08:10:15.144Z,100.00
2023-02-12T08:12:42.044Z,100.00
2023-02-12T08:15:09.278Z,100.00
2023-02-12T08:17:36.090Z,100.00
2023-02-12T08:20:03.183Z,100.00
2023-02-12T08:22:29.970Z,100.00
2023-02-12T08:24:56.771Z,100.00
2023-02-12T08:27:23.611Z,100.00
2023-02-12T08:29:50.440Z,100.00
2023-02-12T08:32:17.398Z,100.00
2023-02-12T08:34:44.282Z,100.00
2023-02-12T08:37:11.171Z,100.00
2023-02-12T08:39:38.013Z,100.00
2023-02-12T08:42:05.050Z,100.00
2023-02-12T08:44:31.952Z,100.00
2023-02-12T08:46:58.892Z,100.00
2023-02-12T08:49:28.206Z,100.00
2023-02-12T08:51:57.103Z,100.00
2023-02-12T08:54:26.647Z,100.00
2023-02-12T08:57:01.650Z,100.00
2023-02-12T08:59:28.730Z,100.00
2023-02-12T09:01:55.649Z,100.00
2023-02-12T09:04:27.390Z,100.00
2023-02-12T09:06:54.391Z,100.00
2023-02-12T09:09:21.426Z,100.00
2023-02-12T09:11:48.652Z,100.00
2023-02-12T09:14:17.184Z,100.00
2023-02-12T09:16:44.715Z,100.00
2023-02-12T09:19:14.048Z,100.00
2023-02-12T09:21:41.452Z,100.00
2023-02-12T09:24:08.819Z,100.00
2023-02-12T09:26:35.773Z,100.00
2023-02-12T09:29:03.802Z,99.71
2023-02-12T09:31:32.259Z,100.00
2023-02-12T09:34:02.270Z,99.70
2023-02-12T09:36:29.896Z,98.33
2023-02-12T09:38:57.620Z,99.09
2023-02-12T09:41:30.213Z,99.50
2023-02-12T09:44:04.658Z,99.18
2023-02-12T09:46:43.335Z,97.50
2023-02-12T09:49:14.940Z,97.49
2023-02-12T09:51:44.910Z,97.09
2023-02-12T09:54:17.669Z,95.39
2023-02-12T09:56:48.902Z,95.71
2023-02-12T09:59:30.317Z,94.94
2023-02-12T10:01:59.052Z,95.59
2023-02-12T10:04:27.806Z,95.89
2023-02-12T10:07:10.344Z,96.99
2023-02-12T10:09:41.406Z,95.43
2023-02-12T10:12:30.848Z,93.59
2023-02-12T10:15:03.674Z,92.17
2023-02-12T10:17:43.537Z,92.07
2023-02-12T10:20:34.597Z,91.20
2023-02-12T10:23:23.485Z,91.64
2023-02-12T10:25:58.852Z,91.21
2023-02-12T10:28:35.309Z,90.56
2023-02-12T10:31:15.197Z,90.13
2023-02-12T10:33:49.094Z,90.10
2023-02-12T10:36:31.564Z,91.07
2023-02-12T10:39:15.871Z,92.62
2023-02-12T10:41:50.188Z,93.23
2023-02-12T10:44:17.002Z,89.92
2023-02-12T10:46:43.995Z,91.96
2023-02-12T10:49:15.553Z,91.03
2023-02-12T10:52:24.365Z,90.69
2023-02-12T10:54:51.213Z,92.24
2023-02-12T10:57:22.381Z,90.87
2023-02-12T10:59:51.637Z,91.35
2023-02-12T11:02:27.209Z,90.96
2023-02-12T11:04:55.317Z,90.68
2023-02-12T11:07:22.923Z,88.70
2023-02-12T11:09:51.699Z,88.91
2023-02-12T11:12:21.474Z,89.09
2023-02-12T11:14:50.270Z,88.88
2023-02-12T11:17:27.403Z,88.62
2023-02-12T11:20:18.608Z,88.64
2023-02-12T11:23:02.291Z,87.54
2023-02-12T11:25:38.669Z,85.00
2023-02-12T11:28:17.589Z,86.47
2023-02-12T11:31:00.674Z,86.78
2023-02-12T11:33:30.517Z,87.16
2023-02-12T11:36:01.187Z,86.48
2023-02-12T11:38:31.817Z,87.33
2023-02-12T11:41:06.718Z,84.32
2023-02-12T11:43:37.336Z,85.59
2023-02-12T11:46:05.297Z,85.14
2023-02-12T11:48:37.957Z,84.72
2023-02-12T11:51:09.340Z,85.36
2023-02-12T11:53:40.713Z,85.65
2023-02-12T11:56:10.863Z,85.86
2023-02-12T11:58:38.525Z,84.73
2023-02-12T12:01:28.156Z,85.70
2023-02-12T12:04:06.708Z,86.23
2023-02-12T12:06:42.267Z,85.83
2023-02-12T12:09:25.352Z,85.42
2023-02-12T12:12:10.740Z,85.59
2023-02-12T12:15:13.105Z,86.92
2023-02-12T12:18:15.287Z,87.51
2023-02-12T12:20:49.956Z,88.22
2023-02-12T12:23:19.773Z,88.36
2023-02-12T12:25:49.352Z,88.55
2023-02-12T12:28:48.518Z,88.34
2023-02-12T12:31:34.990Z,88.99
2023-02-12T12:34:17.446Z,89.29
2023-02-12T12:37:12.872Z,88.87
2023-02-12T12:39:54.822Z,89.33
2023-02-12T12:42:53.220Z,88.27
2023-02-12T12:45:41.189Z,89.04
2023-02-12T12:48:33.909Z,88.82
2023-02-12T12:51:00.701Z,88.50
2023-02-12T12:53:49.200Z,89.14
2023-02-12T12:56:34.639Z,88.89
2023-02-12T12:59:43.449Z,88.74
2023-02-12T13:02:34.949Z,88.72
2023-02-12T13:05:46.644Z,89.32
2023-02-12T13:08:36.954Z,89.27
2023-02-12T13:11:35.871Z,89.29
2023-02-12T13:14:36.667Z,89.02
2023-02-12T13:17:17.390Z,89.96
2023-02-12T13:20:23.647Z,89.88
2023-02-12T13:23:00.736Z,89.61
2023-02-12T13:25:31.195Z,90.02
2023-02-12T13:28:00.054Z,90.10
2023-02-12T13:30:40.087Z,90.32
2023-02-12T13:33:34.485Z,90.01
2023-02-12T13:36:02.523Z,89.71
2023-02-12T13:38:32.994Z,89.90
2023-02-12T13:41:02.780Z,90.31
2023-02-12T13:43:53.924Z,89.79
2023-02-12T13:46:59.141Z,90.16
2023-02-12T13:49:31.701Z,90.19
2023-02-12T13:52:07.249Z,90.43
2023-02-12T13:55:01.848Z,90.65
2023-02-12T13:57:28.756Z,90.62
2023-02-12T13:59:58.413Z,90.51
2023-02-12T14:02:43.421Z,90.92
2023-02-12T14:05:26.654Z,90.94
2023-02-12T14:08:02.475Z,90.88
2023-02-12T14:10:35.952Z,90.98
2023-02-12T14:13:34.398Z,90.92
2023-02-12T14:16:21.208Z,90.31
2023-02-12T14:18:48.114Z,90.39
2023-02-12T14:21:17.292Z,90.35
2023-02-12T14:23:50.930Z,90.26
2023-02-12T14:26:22.491Z,90.43
2023-02-12T14:28:52.172Z,90.52
2023-02-12T14:31:19.228Z,90.90
2023-02-12T14:33:47.311Z,90.41
2023-02-12T14:36:39.128Z,90.13
2023-02-12T14:39:29.576Z,89.39
2023-02-12T14:42:16.467Z,88.29
2023-02-12T14:44:48.796Z,88.57
2023-02-12T14:47:35.523Z,89.07
2023-02-12T14:50:07.633Z,88.97
2023-02-12T14:52:39.990Z,88.95
2023-02-12T14:55:18.860Z,88.75
2023-02-12T14:57:45.796Z,88.89
2023-02-12T15:00:18.791Z,88.86
2023-02-12T15:03:00.073Z,89.01
2023-02-12T15:05:32.797Z,89.12
2023-02-12T15:08:07.439Z,89.64
2023-02-12T15:10:46.366Z,89.88
2023-02-12T15:13:29.690Z,89.61
2023-02-12T15:16:22.958Z,89.63
2023-02-12T15:18:55.290Z,89.62
2023-02-12T15:21:34.130Z,89.96
2023-02-12T15:24:09.047Z,90.33
2023-02-12T15:26:48.119Z,90.38
2023-02-12T15:29:24.738Z,90.76
2023-02-12T15:31:54.880Z,90.45
2023-02-12T15:34:24.824Z,90.42
2023-02-12T15:36:51.734Z,90.27
2023-02-12T15:39:21.784Z,90.71
2023-02-12T15:41:49.527Z,91.03
2023-02-12T15:44:29.095Z,91.28
2023-02-12T15:47:16.435Z,91.37
2023-02-12T15:49:44.161Z,91.36
2023-02-12T15:52:20.678Z,91.01
2023-02-12T15:54:48.108Z,90.79
2023-02-12T15:57:22.918Z,91.48
2023-02-12T15:59:54.177Z,91.64
2023-02-12T16:02:27.539Z,91.80
2023-02-12T16:04:56.380Z,91.83
2023-02-12T16:07:23.988Z,92.18
2023-02-12T16:09:54.092Z,92.63
2023-02-12T16:12:23.859Z,92.67
2023-02-12T16:14:55.966Z,93.07
2023-02-12T16:17:25.797Z,92.95
2023-02-12T16:20:09.087Z,92.60
2023-02-12T16:22:43.592Z,92.91
2023-02-12T16:25:24.521Z,92.77
2023-02-12T16:27:54.875Z,93.57
2023-02-12T16:30:28.925Z,93.79
2023-02-12T16:32:56.506Z,93.25
2023-02-12T16:35:27.104Z,93.79
2023-02-12T16:38:02.439Z,93.68
2023-02-12T16:40:32.422Z,93.96
2023-02-12T16:43:04.487Z,93.38
2023-02-12T16:45:36.380Z,94.24
2023-02-12T16:48:07.932Z,94.18
2023-02-12T16:50:43.923Z,95.42
2023-02-12T16:53:35.955Z,95.83
2023-02-12T16:56:04.434Z,96.59
2023-02-12T16:58:31.414Z,97.03
2023-02-12T17:00:59.248Z,97.95
2023-02-12T17:03:26.470Z,98.79
2023-02-12T17:05:53.500Z,97.96
2023-02-12T17:08:23.481Z,98.43
2023-02-12T17:10:50.392Z,97.97
2023-02-12T17:13:17.849Z,98.12
2023-02-12T17:15:53.292Z,98.54
2023-02-12T17:18:20.684Z,98.72
2023-02-12T17:20:54.521Z,98.59
2023-02-12T17:23:21.700Z,97.87
2023-02-12T17:25:48.666Z,98.02
2023-02-12T17:28:15.933Z,97.45
2023-02-12T17:30:42.949Z,97.22
2023-02-12T17:33:10.095Z,97.02
2023-02-12T17:35:38.912Z,96.90
2023-02-12T17:38:06.397Z,96.52
2023-02-12T17:40:36.053Z,96.89
2023-02-12T17:43:04.095Z,96.89
2023-02-12T17:45:31.175Z,96.55
2023-02-12T17:47:58.757Z,96.29
2023-02-12T17:50:26.956Z,95.79
2023-02-12T17:52:53.829Z,96.48
2023-02-12T17:55:20.713Z,96.26
2023-02-12T17:57:52.046Z,96.02
2023-02-12T18:00:19.584Z,96.71
2023-02-12T18:02:46.391Z,96.44
2023-02-12T18:05:13.835Z,96.89
2023-02-12T18:07:40.782Z,95.94
2023-02-12T18:10:10.152Z,96.86
2023-02-12T18:12:38.269Z,97.03
2023-02-12T18:15:06.052Z,97.01
2023-02-12T18:17:32.915Z,96.33
2023-02-12T18:19:59.761Z,97.51
2023-02-12T18:22:26.712Z,97.01
2023-02-12T18:24:53.634Z,98.10
2023-02-12T18:27:20.528Z,96.96
2023-02-12T18:29:47.367Z,97.15
2023-02-12T18:32:16.072Z,97.18
2023-02-12T18:34:43.852Z,98.05
2023-02-12T18:37:12.733Z,97.60
2023-02-12T18:39:39.753Z,98.03
2023-02-12T18:42:07.185Z,98.36
2023-02-12T18:44:34.083Z,97.90
2023-02-12T18:47:00.947Z,97.93
2023-02-12T18:49:28.294Z,98.08
2023-02-12T18:51:55.345Z,98.74
2023-02-12T18:54:22.259Z,98.80
2023-02-12T18:56:51.781Z,97.65
2023-02-12T18:59:19.144Z,98.68
2023-02-12T19:01:47.418Z,97.33
2023-02-12T19:04:16.281Z,97.39
2023-02-12T19:06:48.603Z,98.12
2023-02-12T19:09:16.864Z,98.57
2023-02-12T19:11:46.830Z,97.36
2023-02-12T19:14:15.341Z,97.81
2023-02-12T19:16:42.700Z,97.88
2023-02-12T19:19:09.588Z,97.04
2023-02-12T19:21:36.643Z,98.59
2023-02-12T19:24:05.379Z,98.17
2023-02-12T19:26:34.293Z,97.59
2023-02-12T19:29:02.253Z,97.22
2023-02-12T19:31:37.726Z,97.75
2023-02-12T19:34:07.989Z,97.90
2023-02-12T19:36:36.392Z,97.79
2023-02-12T19:39:04.872Z,98.15
2023-02-12T19:41:32.975Z,98.36
2023-02-12T19:44:01.716Z,98.53
2023-02-12T19:46:31.095Z,99.31
2023-02-12T19:49:00.665Z,98.40
2023-02-12T19:51:30.080Z,97.93
2023-02-12T19:54:04.282Z,97.62
2023-02-12T19:56:31.640Z,97.20
2023-02-12T19:58:59.191Z,96.39
2023-02-12T20:01:26.495Z,97.70
2023-02-12T20:03:53.894Z,97.05
2023-02-12T20:06:26.624Z,97.20
2023-02-12T20:08:53.634Z,97.33
2023-02-12T20:11:23.417Z,98.09
2023-02-12T20:13:50.823Z,96.57
2023-02-12T20:16:20.187Z,97.49
2023-02-12T20:18:49.318Z,97.49
2023-02-12T20:21:19.678Z,96.59
2023-02-12T20:23:46.633Z,96.68
2023-02-12T20:26:14.606Z,97.70
2023-02-12T20:28:43.146Z,96.49
2023-02-12T20:31:12.281Z,96.61
2023-02-12T20:33:39.511Z,97.28
2023-02-12T20:36:07.118Z,96.87
2023-02-12T20:38:34.267Z,96.73
2023-02-12T20:41:05.650Z,97.14
2023-02-12T20:43:33.382Z,97.10
2023-02-12T20:46:07.962Z,95.95
2023-02-12T20:48:34.883Z,96.87
2023-02-12T20:51:06.577Z,95.96
2023-02-12T20:53:33.697Z,96.33
2023-02-12T20:56:12.111Z,96.25
2023-02-12T20:58:41.223Z,95.29
2023-02-12T21:01:10.339Z,96.04
2023-02-12T21:03:37.634Z,96.58
2023-02-12T21:06:05.107Z,96.38
2023-02-12T21:08:32.299Z,96.62
2023-02-12T21:11:29.313Z,96.81
2023-02-12T21:14:12.447Z,95.68
2023-02-12T21:16:45.268Z,97.42
2023-02-12T21:19:14.250Z,96.04
2023-02-12T21:21:42.024Z,95.30
2023-02-12T21:24:11.199Z,95.42
2023-02-12T21:26:38.059Z,96.59
2023-02-12T21:29:05.139Z,96.22
2023-02-12T21:31:34.570Z,96.22
2023-02-12T21:34:02.761Z,96.62
2023-02-12T21:36:32.201Z,97.02
2023-02-12T21:38:59.592Z,97.11
2023-02-12T21:41:31.509Z,96.55
2023-02-12T21:44:05.897Z,97.88
2023-02-12T21:46:34.421Z,99.00
2023-02-12T21:49:01.944Z,98.64
2023-02-12T21:51:31.985Z,98.27
2023-02-12T21:54:01.773Z,97.71
2023-02-12T21:56:29.497Z,96.91
2023-02-12T21:58:58.561Z,97.55
2023-02-12T22:01:28.616Z,96.39
2023-02-12T22:03:55.675Z,97.32
2023-02-12T22:06:23.718Z,97.45
2023-02-12T22:08:51.288Z,97.53
2023-02-12T22:11:18.790Z,97.39
2023-02-12T22:13:45.958Z,97.18
2023-02-12T22:16:14.216Z,97.83
2023-02-12T22:18:42.276Z,97.16
2023-02-12T22:21:13.315Z,96.69
2023-02-12T22:23:41.388Z,97.27
2023-02-12T22:26:12.134Z,97.39
2023-02-12T22:28:45.089Z,96.99
